sensor_id;sensor_type;location;lat;lon;timestamp;P1;durP1;ratioP1;P2;durP2;ratioP2
77384;SDS011;66443;49.122;8.346;2024-01-15T00:01:28;39.97;;;13.60;;
77384;SDS011;66443;49.122;8.346;2024-01-15T00:03:53;41.50;;;11.90;;
77384;SDS011;66443;49.122;8.346;2024-01-15T00:06:18;45.53;;;15.67;;
77384;SDS011;66443;49.122;8.346;2024-01-15T00:08:44;33.77;;;13.80;;
77384;SDS011;66443;49.122;8.346;2024-01-15T00:11:09;38.83;;;13.37;;
77384;SDS011;66443;49.122;8.346;2024-01-15T00:13:34;36.70;;;12.20;;
77384;SDS011;66443;49.122;8.346;2024-01-15T00:16:00;42.80;;;13.80;;
77384;SDS011;66443;49.122;8.346;2024-01-15T00:18:25;40.87;;;14.50;;
77384;SDS011;66443;49.122;8.346;2024-01-15T00:20:50;43.87;;;13.90;;
77384;SDS011;66443;49.122;8.346;2024-01-15T00:23:15;42.10;;;14.67;;
77384;SDS011;66443;49.122;8.346;2024-01-15T00:25:41;42.47;;;14.53;;
77384;SDS011;66443;49.122;8.346;2024-01-15T00:28:06;43.50;;;14.87;;
77384;SDS011;66443;49.122;8.346;2024-01-15T00:30:31;27.97;;;12.57;;
77384;SDS011;66443;49.122;8.346;2024-01-15T00:32:56;37.63;;;14.35;;
77384;SDS011;66443;49.122;8.346;2024-01-15T00:35:21;36.03;;;14.33;;
77384;SDS011;66443;49.122;8.346;2024-01-15T00:37:46;36.27;;;15.23;;
77384;SDS011;66443;49.122;8.346;2024-01-15T00:40:12;37.80;;;14.87;;
77384;SDS011;66443;49.122;8.346;2024-01-15T00:42:38;39.83;;;14.87;;
77384;SDS011;66443;49.122;8.346;2024-01-15T00:45:03;45.10;;;14.87;;
77384;SDS011;66443;49.122;8.346;2024-01-15T00:47:30;37.47;;;13.53;;
77384;SDS011;66443;49.122;8.346;2024-01-15T00:49:55;39.10;;;13.93;;
77384;SDS011;66443;49.122;8.346;2024-01-15T00:52:20;39.83;;;13.70;;
77384;SDS011;66443;49.122;8.346;2024-01-15T00:54:48;38.13;;;15.40;;
77384;SDS011;66443;49.122;8.346;2024-01-15T00:57:13;23.63;;;10.73;;
77384;SDS011;66443;49.122;8.346;2024-01-15T00:59:39;41.77;;;13.40;;
77384;SDS011;66443;49.122;8.346;2024-01-15T01:02:04;27.97;;;11.43;;
77384;SDS011;66443;49.122;8.346;2024-01-15T01:04:29;35.20;;;13.40;;
77384;SDS011;66443;49.122;8.346;2024-01-15T01:06:54;24.87;;;11.60;;
77384;SDS011;66443;49.122;8.346;2024-01-15T01:09:20;34.20;;;11.33;;
77384;SDS011;66443;49.122;8.346;2024-01-15T01:11:45;38.53;;;13.63;;
77384;SDS011;66443;49.122;8.346;2024-01-15T01:14:10;33.88;;;12.80;;
77384;SDS011;66443;49.122;8.346;2024-01-15T01:16:35;38.53;;;13.23;;
77384;SDS011;66443;49.122;8.346;2024-01-15T01:19:04;28.83;;;11.87;;
77384;SDS011;66443;49.122;8.346;2024-01-15T01:21:29;38.10;;;13.47;;
77384;SDS011;66443;49.122;8.346;2024-01-15T01:23:54;33.23;;;12.33;;
77384;SDS011;66443;49.122;8.346;2024-01-15T01:26:20;35.00;;;13.03;;
77384;SDS011;66443;49.122;8.346;2024-01-15T01:28:45;34.97;;;11.87;;
77384;SDS011;66443;49.122;8.346;2024-01-15T01:31:10;30.40;;;13.27;;
77384;SDS011;66443;49.122;8.346;2024-01-15T01:33:35;51.13;;;14.40;;
77384;SDS011;66443;49.122;8.346;2024-01-15T01:36:00;38.53;;;14.13;;
77384;SDS011;66443;49.122;8.346;2024-01-15T01:38:26;33.07;;;12.30;;
77384;SDS011;66443;49.122;8.346;2024-01-15T01:40:51;35.17;;;13.47;;
77384;SDS011;66443;49.122;8.346;2024-01-15T01:43:16;34.93;;;13.07;;
77384;SDS011;66443;49.122;8.346;2024-01-15T01:45:41;34.10;;;12.50;;
77384;SDS011;66443;49.122;8.346;2024-01-15T01:48:06;33.57;;;12.03;;
77384;SDS011;66443;49.122;8.346;2024-01-15T01:50:32;42.03;;;14.27;;
77384;SDS011;66443;49.122;8.346;2024-01-15T01:52:57;38.37;;;13.10;;
77384;SDS011;66443;49.122;8.346;2024-01-15T01:55:23;30.13;;;13.33;;
77384;SDS011;66443;49.122;8.346;2024-01-15T01:57:49;35.73;;;13.63;;
77384;SDS011;66443;49.122;8.346;2024-01-15T02:00:15;28.37;;;10.57;;
77384;SDS011;66443;49.122;8.346;2024-01-15T02:02:41;26.20;;;11.40;;
77384;SDS011;66443;49.122;8.346;2024-01-15T02:05:07;25.73;;;10.73;;
77384;SDS011;66443;49.122;8.346;2024-01-15T02:07:34;27.00;;;10.67;;
77384;SDS011;66443;49.122;8.346;2024-01-15T02:09:59;25.30;;;9.83;;
77384;SDS011;66443;49.122;8.346;2024-01-15T02:12:24;25.27;;;10.50;;
77384;SDS011;66443;49.122;8.346;2024-01-15T02:14:49;22.03;;;11.03;;
77384;SDS011;66443;49.122;8.346;2024-01-15T02:17:15;15.53;;;8.83;;
77384;SDS011;66443;49.122;8.346;2024-01-15T02:19:40;18.03;;;9.87;;
77384;SDS011;66443;49.122;8.346;2024-01-15T02:22:06;19.70;;;10.53;;
77384;SDS011;66443;49.122;8.346;2024-01-15T02:24:31;21.77;;;9.17;;
77384;SDS011;66443;49.122;8.346;2024-01-15T02:26:56;28.00;;;10.07;;
77384;SDS011;66443;49.122;8.346;2024-01-15T02:29:21;23.77;;;9.70;;
77384;SDS011;66443;49.122;8.346;2024-01-15T02:31:47;13.00;;;8.17;;
77384;SDS011;66443;49.122;8.346;2024-01-15T02:34:12;16.17;;;9.23;;
77384;SDS011;66443;49.122;8.346;2024-01-15T02:36:37;16.17;;;9.07;;
77384;SDS011;66443;49.122;8.346;2024-01-15T02:39:03;16.33;;;8.57;;
77384;SDS011;66443;49.122;8.346;2024-01-15T02:41:28;17.60;;;8.60;;
77384;SDS011;66443;49.122;8.346;2024-01-15T02:43:53;16.30;;;8.97;;
77384;SDS011;66443;49.122;8.346;2024-01-15T02:46:18;15.83;;;10.00;;
77384;SDS011;66443;49.122;8.346;2024-01-15T02:48:44;30.13;;;10.63;;
77384;SDS011;66443;49.122;8.346;2024-01-15T02:51:09;24.30;;;10.13;;
77384;SDS011;66443;49.122;8.346;2024-01-15T02:53:35;17.20;;;8.97;;
77384;SDS011;66443;49.122;8.346;2024-01-15T02:56:01;15.47;;;7.73;;
77384;SDS011;66443;49.122;8.346;2024-01-15T02:58:26;18.27;;;9.90;;
77384;SDS011;66443;49.122;8.346;2024-01-15T03:00:51;22.27;;;9.33;;
77384;SDS011;66443;49.122;8.346;2024-01-15T03:03:16;24.30;;;9.23;;
77384;SDS011;66443;49.122;8.346;2024-01-15T03:05:41;15.20;;;8.00;;
77384;SDS011;66443;49.122;8.346;2024-01-15T03:08:07;14.57;;;7.90;;
77384;SDS011;66443;49.122;8.346;2024-01-15T03:10:32;15.83;;;7.23;;
77384;SDS011;66443;49.122;8.346;2024-01-15T03:12:57;15.27;;;8.30;;
77384;SDS011;66443;49.122;8.346;2024-01-15T03:15:22;13.03;;;8.40;;
77384;SDS011;66443;49.122;8.346;2024-01-15T03:17:47;18.73;;;8.13;;
77384;SDS011;66443;49.122;8.346;2024-01-15T03:20:13;19.63;;;9.70;;
77384;SDS011;66443;49.122;8.346;2024-01-15T03:22:38;14.53;;;8.27;;
77384;SDS011;66443;49.122;8.346;2024-01-15T03:25:03;21.00;;;8.57;;
77384;SDS011;66443;49.122;8.346;2024-01-15T03:27:29;19.23;;;9.53;;
77384;SDS011;66443;49.122;8.346;2024-01-15T03:29:54;19.90;;;8.57;;
77384;SDS011;66443;49.122;8.346;2024-01-15T03:32:19;18.67;;;8.93;;
77384;SDS011;66443;49.122;8.346;2024-01-15T03:34:44;18.53;;;9.57;;
77384;SDS011;66443;49.122;8.346;2024-01-15T03:37:10;15.83;;;7.30;;
77384;SDS011;66443;49.122;8.346;2024-01-15T03:39:36;19.87;;;8.80;;
77384;SDS011;66443;49.122;8.346;2024-01-15T03:42:01;17.87;;;8.17;;
77384;SDS011;66443;49.122;8.346;2024-01-15T03:44:26;15.73;;;7.90;;
77384;SDS011;66443;49.122;8.346;2024-01-15T03:46:51;20.63;;;9.10;;
77384;SDS011;66443;49.122;8.346;2024-01-15T03:49:16;18.73;;;8.47;;
77384;SDS011;66443;49.122;8.346;2024-01-15T03:51:42;22.70;;;9.00;;
77384;SDS011;66443;49.122;8.346;2024-01-15T03:54:07;22.20;;;8.47;;
77384;SDS011;66443;49.122;8.346;2024-01-15T03:56:32;14.80;;;8.97;;
77384;SDS011;66443;49.122;8.346;2024-01-15T03:58:57;21.43;;;9.47;;
77384;SDS011;66443;49.122;8.346;2024-01-15T04:01:22;23.03;;;10.07;;
77384;SDS011;66443;49.122;8.346;2024-01-15T04:03:47;17.53;;;8.47;;
77384;SDS011;66443;49.122;8.346;2024-01-15T04:06:13;20.13;;;10.83;;
77384;SDS011;66443;49.122;8.346;2024-01-15T04:08:38;17.87;;;10.10;;
77384;SDS011;66443;49.122;8.346;2024-01-15T04:11:03;25.05;;;10.57;;
77384;SDS011;66443;49.122;8.346;2024-01-15T04:13:28;23.57;;;10.30;;
77384;SDS011;66443;49.122;8.346;2024-01-15T04:15:56;22.37;;;10.17;;
77384;SDS011;66443;49.122;8.346;2024-01-15T04:18:22;24.53;;;9.40;;
77384;SDS011;66443;49.122;8.346;2024-01-15T04:20:47;19.13;;;8.07;;
77384;SDS011;66443;49.122;8.346;2024-01-15T04:23:12;23.57;;;10.60;;
77384;SDS011;66443;49.122;8.346;2024-01-15T04:25:37;27.07;;;9.83;;
77384;SDS011;66443;49.122;8.346;2024-01-15T04:28:04;27.13;;;9.53;;
77384;SDS011;66443;49.122;8.346;2024-01-15T04:30:29;18.90;;;8.60;;
77384;SDS011;66443;49.122;8.346;2024-01-15T04:32:54;24.73;;;10.60;;
77384;SDS011;66443;49.122;8.346;2024-01-15T04:35:20;20.27;;;9.93;;
77384;SDS011;66443;49.122;8.346;2024-01-15T04:37:45;21.00;;;10.07;;
77384;SDS011;66443;49.122;8.346;2024-01-15T04:40:10;21.93;;;10.30;;
77384;SDS011;66443;49.122;8.346;2024-01-15T04:42:35;20.37;;;10.33;;
77384;SDS011;66443;49.122;8.346;2024-01-15T04:45:00;29.50;;;10.97;;
77384;SDS011;66443;49.122;8.346;2024-01-15T04:47:26;21.33;;;9.53;;
77384;SDS011;66443;49.122;8.346;2024-01-15T04:49:51;16.70;;;9.20;;
77384;SDS011;66443;49.122;8.346;2024-01-15T04:52:16;27.57;;;11.13;;
77384;SDS011;66443;49.122;8.346;2024-01-15T04:54:41;23.13;;;10.10;;
77384;SDS011;66443;49.122;8.346;2024-01-15T04:57:06;26.70;;;10.67;;
77384;SDS011;66443;49.122;8.346;2024-01-15T04:59:32;26.50;;;12.37;;
77384;SDS011;66443;49.122;8.346;2024-01-15T05:01:57;20.63;;;9.87;;
77384;SDS011;66443;49.122;8.346;2024-01-15T05:04:22;30.40;;;10.80;;
77384;SDS011;66443;49.122;8.346;2024-01-15T05:06:47;37.73;;;10.43;;
77384;SDS011;66443;49.122;8.346;2024-01-15T05:09:12;26.37;;;11.50;;
77384;SDS011;66443;49.122;8.346;2024-01-15T05:11:41;26.90;;;9.63;;
77384;SDS011;66443;49.122;8.346;2024-01-15T05:14:06;28.60;;;11.30;;
77384;SDS011;66443;49.122;8.346;2024-01-15T05:16:31;24.07;;;8.93;;
77384;SDS011;66443;49.122;8.346;2024-01-15T05:18:56;27.67;;;11.10;;
77384;SDS011;66443;49.122;8.346;2024-01-15T05:21:21;25.98;;;11.43;;
77384;SDS011;66443;49.122;8.346;2024-01-15T05:23:46;25.87;;;11.03;;
77384;SDS011;66443;49.122;8.346;2024-01-15T05:26:11;24.27;;;11.97;;
77384;SDS011;66443;49.122;8.346;2024-01-15T05:28:37;27.57;;;11.03;;
77384;SDS011;66443;49.122;8.346;2024-01-15T05:31:02;22.53;;;10.70;;
77384;SDS011;66443;49.122;8.346;2024-01-15T05:33:28;22.17;;;10.40;;
77384;SDS011;66443;49.122;8.346;2024-01-15T05:35:53;29.23;;;12.20;;
77384;SDS011;66443;49.122;8.346;2024-01-15T05:38:18;29.13;;;11.77;;
77384;SDS011;66443;49.122;8.346;2024-01-15T05:40:44;29.20;;;11.47;;
77384;SDS011;66443;49.122;8.346;2024-01-15T05:43:09;23.27;;;9.63;;
77384;SDS011;66443;49.122;8.346;2024-01-15T05:45:34;28.00;;;11.77;;
77384;SDS011;66443;49.122;8.346;2024-01-15T05:48:00;21.07;;;10.40;;
77384;SDS011;66443;49.122;8.346;2024-01-15T05:50:25;21.23;;;9.73;;
77384;SDS011;66443;49.122;8.346;2024-01-15T05:52:51;25.00;;;12.67;;
77384;SDS011;66443;49.122;8.346;2024-01-15T05:55:17;20.80;;;10.80;;
77384;SDS011;66443;49.122;8.346;2024-01-15T05:57:43;20.53;;;10.03;;
77384;SDS011;66443;49.122;8.346;2024-01-15T06:00:08;23.77;;;12.10;;
77384;SDS011;66443;49.122;8.346;2024-01-15T06:02:33;21.13;;;10.67;;
77384;SDS011;66443;49.122;8.346;2024-01-15T06:04:59;22.73;;;10.32;;
77384;SDS011;66443;49.122;8.346;2024-01-15T06:07:24;22.37;;;10.07;;
77384;SDS011;66443;49.122;8.346;2024-01-15T06:09:49;20.07;;;9.77;;
77384;SDS011;66443;49.122;8.346;2024-01-15T06:12:14;23.53;;;11.10;;
77384;SDS011;66443;49.122;8.346;2024-01-15T06:14:40;25.27;;;10.63;;
77384;SDS011;66443;49.122;8.346;2024-01-15T06:17:06;28.60;;;11.30;;
77384;SDS011;66443;49.122;8.346;2024-01-15T06:19:31;21.67;;;11.50;;
77384;SDS011;66443;49.122;8.346;2024-01-15T06:21:56;21.80;;;12.63;;
77384;SDS011;66443;49.122;8.346;2024-01-15T06:24:22;19.17;;;10.00;;
77384;SDS011;66443;49.122;8.346;2024-01-15T06:26:47;23.30;;;11.07;;
77384;SDS011;66443;49.122;8.346;2024-01-15T06:29:12;29.73;;;13.17;;
77384;SDS011;66443;49.122;8.346;2024-01-15T06:31:37;21.17;;;10.30;;
77384;SDS011;66443;49.122;8.346;2024-01-15T06:34:03;22.60;;;12.50;;
77384;SDS011;66443;49.122;8.346;2024-01-15T06:36:28;16.77;;;11.30;;
77384;SDS011;66443;49.122;8.346;2024-01-15T06:38:53;24.27;;;11.17;;
77384;SDS011;66443;49.122;8.346;2024-01-15T06:41:18;31.83;;;10.50;;
77384;SDS011;66443;49.122;8.346;2024-01-15T06:43:44;24.57;;;10.40;;
77384;SDS011;66443;49.122;8.346;2024-01-15T06:46:09;17.73;;;9.77;;
77384;SDS011;66443;49.122;8.346;2024-01-15T06:48:34;19.10;;;10.67;;
77384;SDS011;66443;49.122;8.346;2024-01-15T06:50:59;24.17;;;10.97;;
77384;SDS011;66443;49.122;8.346;2024-01-15T06:53:24;15.80;;;9.63;;
77384;SDS011;66443;49.122;8.346;2024-01-15T06:55:50;22.00;;;10.70;;
77384;SDS011;66443;49.122;8.346;2024-01-15T06:58:16;21.57;;;8.70;;
77384;SDS011;66443;49.122;8.346;2024-01-15T07:00:41;22.80;;;9.07;;
77384;SDS011;66443;49.122;8.346;2024-01-15T07:03:06;14.93;;;9.47;;
77384;SDS011;66443;49.122;8.346;2024-01-15T07:05:32;15.40;;;8.73;;
77384;SDS011;66443;49.122;8.346;2024-01-15T07:07:57;16.27;;;8.90;;
77384;SDS011;66443;49.122;8.346;2024-01-15T07:10:22;14.70;;;9.50;;
77384;SDS011;66443;49.122;8.346;2024-01-15T07:12:47;22.87;;;9.37;;
77384;SDS011;66443;49.122;8.346;2024-01-15T07:15:13;22.80;;;10.53;;
77384;SDS011;66443;49.122;8.346;2024-01-15T07:17:38;17.27;;;9.47;;
77384;SDS011;66443;49.122;8.346;2024-01-15T07:20:05;18.77;;;11.17;;
77384;SDS011;66443;49.122;8.346;2024-01-15T07:22:32;15.63;;;10.77;;
77384;SDS011;66443;49.122;8.346;2024-01-15T07:24:57;20.53;;;11.30;;
77384;SDS011;66443;49.122;8.346;2024-01-15T07:27:22;15.37;;;9.23;;
77384;SDS011;66443;49.122;8.346;2024-01-15T07:29:47;22.57;;;11.10;;
77384;SDS011;66443;49.122;8.346;2024-01-15T07:32:13;18.80;;;10.07;;
77384;SDS011;66443;49.122;8.346;2024-01-15T07:34:39;24.30;;;10.50;;
77384;SDS011;66443;49.122;8.346;2024-01-15T07:37:04;24.07;;;11.60;;
77384;SDS011;66443;49.122;8.346;2024-01-15T07:39:29;11.73;;;8.10;;
77384;SDS011;66443;49.122;8.346;2024-01-15T07:41:55;23.43;;;10.03;;
77384;SDS011;66443;49.122;8.346;2024-01-15T07:44:20;15.63;;;9.90;;
77384;SDS011;66443;49.122;8.346;2024-01-15T07:46:46;19.63;;;9.90;;
77384;SDS011;66443;49.122;8.346;2024-01-15T07:49:11;14.43;;;10.27;;
77384;SDS011;66443;49.122;8.346;2024-01-15T07:51:37;15.77;;;8.43;;
77384;SDS011;66443;49.122;8.346;2024-01-15T07:54:02;21.33;;;9.70;;
77384;SDS011;66443;49.122;8.346;2024-01-15T07:56:27;16.90;;;8.73;;
77384;SDS011;66443;49.122;8.346;2024-01-15T07:58:52;16.30;;;9.83;;
77384;SDS011;66443;49.122;8.346;2024-01-15T08:01:18;13.60;;;8.23;;
77384;SDS011;66443;49.122;8.346;2024-01-15T08:03:43;19.23;;;8.93;;
77384;SDS011;66443;49.122;8.346;2024-01-15T08:06:08;15.90;;;7.87;;
77384;SDS011;66443;49.122;8.346;2024-01-15T08:08:34;15.43;;;10.20;;
77384;SDS011;66443;49.122;8.346;2024-01-15T08:11:00;14.63;;;8.80;;
77384;SDS011;66443;49.122;8.346;2024-01-15T08:13:27;14.47;;;7.10;;
77384;SDS011;66443;49.122;8.346;2024-01-15T08:15:52;11.90;;;7.60;;
77384;SDS011;66443;49.122;8.346;2024-01-15T08:18:18;14.00;;;8.80;;
77384;SDS011;66443;49.122;8.346;2024-01-15T08:20:43;20.97;;;9.67;;
77384;SDS011;66443;49.122;8.346;2024-01-15T08:23:08;16.80;;;9.02;;
77384;SDS011;66443;49.122;8.346;2024-01-15T08:25:34;14.67;;;7.87;;
77384;SDS011;66443;49.122;8.346;2024-01-15T08:27:59;14.20;;;9.33;;
77384;SDS011;66443;49.122;8.346;2024-01-15T08:30:25;13.10;;;8.97;;
77384;SDS011;66443;49.122;8.346;2024-01-15T08:32:53;12.30;;;8.17;;
77384;SDS011;66443;49.122;8.346;2024-01-15T08:35:18;14.80;;;8.83;;
77384;SDS011;66443;49.122;8.346;2024-01-15T08:37:47;14.70;;;8.73;;
77384;SDS011;66443;49.122;8.346;2024-01-15T08:40:12;23.40;;;9.00;;
77384;SDS011;66443;49.122;8.346;2024-01-15T08:42:38;18.93;;;9.53;;
77384;SDS011;66443;49.122;8.346;2024-01-15T08:45:03;16.43;;;8.70;;
77384;SDS011;66443;49.122;8.346;2024-01-15T08:47:29;20.23;;;10.17;;
77384;SDS011;66443;49.122;8.346;2024-01-15T08:49:54;22.40;;;10.10;;
77384;SDS011;66443;49.122;8.346;2024-01-15T08:52:19;15.50;;;9.43;;
77384;SDS011;66443;49.122;8.346;2024-01-15T08:54:45;10.67;;;6.67;;
77384;SDS011;66443;49.122;8.346;2024-01-15T08:57:10;15.93;;;8.20;;
77384;SDS011;66443;49.122;8.346;2024-01-15T08:59:36;21.30;;;9.97;;
77384;SDS011;66443;49.122;8.346;2024-01-15T09:02:01;17.77;;;9.43;;
77384;SDS011;66443;49.122;8.346;2024-01-15T09:04:27;17.20;;;8.47;;
77384;SDS011;66443;49.122;8.346;2024-01-15T09:06:52;15.97;;;9.17;;
77384;SDS011;66443;49.122;8.346;2024-01-15T09:09:17;17.07;;;9.37;;
77384;SDS011;66443;49.122;8.346;2024-01-15T09:11:42;14.53;;;9.47;;
77384;SDS011;66443;49.122;8.346;2024-01-15T09:14:07;18.10;;;8.77;;
77384;SDS011;66443;49.122;8.346;2024-01-15T09:16:33;12.60;;;8.83;;
77384;SDS011;66443;49.122;8.346;2024-01-15T09:18:58;17.77;;;9.33;;
77384;SDS011;66443;49.122;8.346;2024-01-15T09:21:24;19.23;;;10.40;;
77384;SDS011;66443;49.122;8.346;2024-01-15T09:23:50;13.40;;;8.53;;
77384;SDS011;66443;49.122;8.346;2024-01-15T09:26:15;17.13;;;8.67;;
77384;SDS011;66443;49.122;8.346;2024-01-15T09:28:40;19.40;;;10.10;;
77384;SDS011;66443;49.122;8.346;2024-01-15T09:31:05;13.33;;;8.23;;
77384;SDS011;66443;49.122;8.346;2024-01-15T09:33:31;18.03;;;9.47;;
77384;SDS011;66443;49.122;8.346;2024-01-15T09:35:56;21.07;;;11.30;;
77384;SDS011;66443;49.122;8.346;2024-01-15T09:38:21;19.03;;;9.43;;
77384;SDS011;66443;49.122;8.346;2024-01-15T09:40:46;16.87;;;9.37;;
77384;SDS011;66443;49.122;8.346;2024-01-15T09:43:12;13.33;;;9.27;;
77384;SDS011;66443;49.122;8.346;2024-01-15T09:45:38;16.03;;;9.57;;
77384;SDS011;66443;49.122;8.346;2024-01-15T09:48:03;22.80;;;10.10;;
77384;SDS011;66443;49.122;8.346;2024-01-15T09:50:28;13.37;;;9.33;;
77384;SDS011;66443;49.122;8.346;2024-01-15T09:52:54;16.33;;;9.00;;
77384;SDS011;66443;49.122;8.346;2024-01-15T09:55:19;17.40;;;10.20;;
77384;SDS011;66443;49.122;8.346;2024-01-15T09:57:44;18.90;;;9.70;;
77384;SDS011;66443;49.122;8.346;2024-01-15T10:00:11;20.07;;;8.63;;
77384;SDS011;66443;49.122;8.346;2024-01-15T10:02:36;21.37;;;10.07;;
77384;SDS011;66443;49.122;8.346;2024-01-15T10:05:01;17.00;;;10.23;;
77384;SDS011;66443;49.122;8.346;2024-01-15T10:07:27;16.83;;;10.13;;
77384;SDS011;66443;49.122;8.346;2024-01-15T10:09:54;21.33;;;10.43;;
77384;SDS011;66443;49.122;8.346;2024-01-15T10:12:19;18.80;;;10.47;;
77384;SDS011;66443;49.122;8.346;2024-01-15T10:14:46;22.30;;;10.07;;
77384;SDS011;66443;49.122;8.346;2024-01-15T10:17:14;18.13;;;9.60;;
77384;SDS011;66443;49.122;8.346;2024-01-15T10:19:40;22.87;;;11.37;;
77384;SDS011;66443;49.122;8.346;2024-01-15T10:22:06;19.87;;;11.13;;
77384;SDS011;66443;49.122;8.346;2024-01-15T10:24:31;19.90;;;10.57;;
77384;SDS011;66443;49.122;8.346;2024-01-15T10:27:07;19.93;;;11.63;;
77384;SDS011;66443;49.122;8.346;2024-01-15T10:29:32;18.47;;;10.93;;
77384;SDS011;66443;49.122;8.346;2024-01-15T10:31:57;20.13;;;11.20;;
77384;SDS011;66443;49.122;8.346;2024-01-15T10:34:22;29.00;;;12.43;;
77384;SDS011;66443;49.122;8.346;2024-01-15T10:36:49;21.97;;;11.67;;
77384;SDS011;66443;49.122;8.346;2024-01-15T10:39:20;16.37;;;9.93;;
77384;SDS011;66443;49.122;8.346;2024-01-15T10:41:45;22.10;;;10.37;;
77384;SDS011;66443;49.122;8.346;2024-01-15T10:44:10;19.40;;;10.27;;
77384;SDS011;66443;49.122;8.346;2024-01-15T10:46:35;21.53;;;11.57;;
77384;SDS011;66443;49.122;8.346;2024-01-15T10:49:01;32.13;;;12.87;;
77384;SDS011;66443;49.122;8.346;2024-01-15T10:51:26;19.23;;;12.27;;
77384;SDS011;66443;49.122;8.346;2024-01-15T10:53:51;19.60;;;11.60;;
77384;SDS011;66443;49.122;8.346;2024-01-15T10:56:17;32.50;;;12.53;;
77384;SDS011;66443;49.122;8.346;2024-01-15T10:58:42;28.30;;;13.90;;
77384;SDS011;66443;49.122;8.346;2024-01-15T11:01:08;28.30;;;14.07;;
77384;SDS011;66443;49.122;8.346;2024-01-15T11:03:33;26.97;;;12.57;;
77384;SDS011;66443;49.122;8.346;2024-01-15T11:05:59;26.83;;;13.13;;
77384;SDS011;66443;49.122;8.346;2024-01-15T11:08:24;33.90;;;13.43;;
77384;SDS011;66443;49.122;8.346;2024-01-15T11:10:50;24.00;;;13.47;;
77384;SDS011;66443;49.122;8.346;2024-01-15T11:16:00;29.53;;;14.33;;
77384;SDS011;66443;49.122;8.346;2024-01-15T11:18:29;29.17;;;12.97;;
77384;SDS011;66443;49.122;8.346;2024-01-15T11:26:38;18.10;;;10.87;;
77384;SDS011;66443;49.122;8.346;2024-01-15T11:29:10;24.90;;;12.03;;
77384;SDS011;66443;49.122;8.346;2024-01-15T11:34:03;26.73;;;13.00;;
77384;SDS011;66443;49.122;8.346;2024-01-15T11:42:00;21.87;;;12.70;;
77384;SDS011;66443;49.122;8.346;2024-01-15T11:44:26;23.00;;;11.63;;
77384;SDS011;66443;49.122;8.346;2024-01-15T11:46:58;17.80;;;11.10;;
77384;SDS011;66443;49.122;8.346;2024-01-15T11:50:06;25.07;;;13.57;;
77384;SDS011;66443;49.122;8.346;2024-01-15T11:52:12;13.27;;;10.23;;
77384;SDS011;66443;49.122;8.346;2024-01-15T11:54:40;26.93;;;12.93;;
77384;SDS011;66443;49.122;8.346;2024-01-15T11:57:09;25.13;;;12.07;;
77384;SDS011;66443;49.122;8.346;2024-01-15T11:59:35;25.33;;;12.80;;
77384;SDS011;66443;49.122;8.346;2024-01-15T12:02:01;19.83;;;12.17;;
77384;SDS011;66443;49.122;8.346;2024-01-15T12:04:26;19.20;;;11.27;;
77384;SDS011;66443;49.122;8.346;2024-01-15T12:06:52;19.57;;;12.70;;
77384;SDS011;66443;49.122;8.346;2024-01-15T12:09:19;19.97;;;11.40;;
77384;SDS011;66443;49.122;8.346;2024-01-15T12:11:45;19.73;;;10.30;;
77384;SDS011;66443;49.122;8.346;2024-01-15T12:14:12;22.07;;;11.50;;
77384;SDS011;66443;49.122;8.346;2024-01-15T12:16:37;21.73;;;11.90;;
77384;SDS011;66443;49.122;8.346;2024-01-15T12:19:03;23.77;;;12.20;;
77384;SDS011;66443;49.122;8.346;2024-01-15T12:21:28;20.10;;;13.33;;
77384;SDS011;66443;49.122;8.346;2024-01-15T12:23:53;21.73;;;10.60;;
77384;SDS011;66443;49.122;8.346;2024-01-15T12:26:20;18.93;;;11.77;;
77384;SDS011;66443;49.122;8.346;2024-01-15T12:28:45;21.40;;;11.13;;
77384;SDS011;66443;49.122;8.346;2024-01-15T12:31:11;22.60;;;9.97;;
77384;SDS011;66443;49.122;8.346;2024-01-15T12:33:36;18.77;;;12.07;;
77384;SDS011;66443;49.122;8.346;2024-01-15T12:36:01;14.77;;;10.17;;
77384;SDS011;66443;49.122;8.346;2024-01-15T12:38:28;18.67;;;10.33;;
77384;SDS011;66443;49.122;8.346;2024-01-15T12:40:53;20.37;;;11.87;;
77384;SDS011;66443;49.122;8.346;2024-01-15T12:43:18;20.87;;;11.37;;
77384;SDS011;66443;49.122;8.346;2024-01-15T12:45:43;20.40;;;10.90;;
77384;SDS011;66443;49.122;8.346;2024-01-15T12:48:09;22.87;;;10.90;;
77384;SDS011;66443;49.122;8.346;2024-01-15T12:50:34;23.23;;;11.60;;
77384;SDS011;66443;49.122;8.346;2024-01-15T12:53:00;22.37;;;11.53;;
77384;SDS011;66443;49.122;8.346;2024-01-15T12:55:26;20.27;;;11.83;;
77384;SDS011;66443;49.122;8.346;2024-01-15T12:57:51;16.63;;;11.03;;
77384;SDS011;66443;49.122;8.346;2024-01-15T13:00:20;18.03;;;9.77;;
77384;SDS011;66443;49.122;8.346;2024-01-15T13:02:45;22.00;;;11.00;;
77384;SDS011;66443;49.122;8.346;2024-01-15T13:05:11;22.80;;;11.90;;
77384;SDS011;66443;49.122;8.346;2024-01-15T13:07:36;15.17;;;9.93;;
77384;SDS011;66443;49.122;8.346;2024-01-15T13:10:02;16.10;;;10.10;;
77384;SDS011;66443;49.122;8.346;2024-01-15T13:12:27;12.37;;;8.80;;
77384;SDS011;66443;49.122;8.346;2024-01-15T13:14:53;10.83;;;8.17;;
77384;SDS011;66443;49.122;8.346;2024-01-15T13:17:18;12.30;;;9.00;;
77384;SDS011;66443;49.122;8.346;2024-01-15T13:19:44;12.07;;;8.27;;
77384;SDS011;66443;49.122;8.346;2024-01-15T13:22:09;12.30;;;9.37;;
77384;SDS011;66443;49.122;8.346;2024-01-15T13:24:35;10.43;;;9.13;;
77384;SDS011;66443;49.122;8.346;2024-01-15T13:27:01;9.93;;;7.67;;
77384;SDS011;66443;49.122;8.346;2024-01-15T13:29:26;9.57;;;8.03;;
77384;SDS011;66443;49.122;8.346;2024-01-15T13:31:51;12.07;;;8.53;;
77384;SDS011;66443;49.122;8.346;2024-01-15T13:34:16;11.53;;;8.13;;
77384;SDS011;66443;49.122;8.346;2024-01-15T13:36:41;10.03;;;7.40;;
77384;SDS011;66443;49.122;8.346;2024-01-15T13:39:06;9.40;;;8.40;;
77384;SDS011;66443;49.122;8.346;2024-01-15T13:41:34;9.23;;;8.00;;
77384;SDS011;66443;49.122;8.346;2024-01-15T13:43:59;11.27;;;8.53;;
77384;SDS011;66443;49.122;8.346;2024-01-15T13:46:24;10.63;;;7.77;;
77384;SDS011;66443;49.122;8.346;2024-01-15T13:48:51;10.23;;;7.97;;
77384;SDS011;66443;49.122;8.346;2024-01-15T13:51:16;7.67;;;6.70;;
77384;SDS011;66443;49.122;8.346;2024-01-15T13:53:42;10.93;;;9.73;;
77384;SDS011;66443;49.122;8.346;2024-01-15T13:56:07;10.40;;;9.10;;
77384;SDS011;66443;49.122;8.346;2024-01-15T13:58:35;12.30;;;10.73;;
77384;SDS011;66443;49.122;8.346;2024-01-15T14:01:00;10.63;;;9.30;;
77384;SDS011;66443;49.122;8.346;2024-01-15T14:03:25;10.43;;;7.70;;
77384;SDS011;66443;49.122;8.346;2024-01-15T14:05:51;7.87;;;6.83;;
77384;SDS011;66443;49.122;8.346;2024-01-15T14:08:16;9.83;;;8.70;;
77384;SDS011;66443;49.122;8.346;2024-01-15T14:10:41;9.30;;;8.23;;
77384;SDS011;66443;49.122;8.346;2024-01-15T14:13:07;12.30;;;9.13;;
77384;SDS011;66443;49.122;8.346;2024-01-15T14:15:32;10.83;;;8.10;;
77384;SDS011;66443;49.122;8.346;2024-01-15T14:17:57;10.00;;;7.83;;
77384;SDS011;66443;49.122;8.346;2024-01-15T14:20:23;9.07;;;6.57;;
77384;SDS011;66443;49.122;8.346;2024-01-15T14:22:48;9.90;;;6.57;;
77384;SDS011;66443;49.122;8.346;2024-01-15T14:25:13;9.50;;;5.90;;
77384;SDS011;66443;49.122;8.346;2024-01-15T14:27:38;7.63;;;6.80;;
77384;SDS011;66443;49.122;8.346;2024-01-15T14:30:04;9.83;;;6.33;;
77384;SDS011;66443;49.122;8.346;2024-01-15T14:32:30;7.37;;;6.67;;
77384;SDS011;66443;49.122;8.346;2024-01-15T14:34:56;6.33;;;5.70;;